Time;durP1;ratioP1;P1;durP2;ratioP2;P2;SDS_P1;SDS_P2;PMS_P1;PMS_P2;Temp;Humidity;BMP_temperature;BMP_pressure;BME280_temperature;BME280_humidity;BME280_pressure;Samples;Min_cycle;Max_cycle;Signal;HPM_P1;HPM_P2
2023/01/14 00:02:20;;;;;;;9.00;2.77;;;5.90;99.90;;;;;;4999417;28;20259;-79
2023/01/14 00:04:47;;;;;;;9.93;2.33;;;5.90;99.90;;;;;;4986313;28;20307;-78
2023/01/14 00:07:15;;;;;;;7.43;1.80;;;5.90;99.90;;;;;;5003796;28;20238;-79
2023/01/14 00:09:44;;;;;;;9.67;2.03;;;6.00;99.90;;;;;;5000624;28;20289;-78
2023/01/14 00:12:11;;;;;;;10.20;1.80;;;5.90;99.90;;;;;;4981199;28;20217;-79
2023/01/14 00:14:39;;;;;;;10.27;2.10;;;5.90;99.90;;;;;;4986165;28;20234;-79
2023/01/14 00:17:06;;;;;;;14.43;2.30;;;5.90;99.90;;;;;;4998314;28;20231;-79
2023/01/14 00:19:38;;;;;;;9.77;2.00;;;5.90;99.90;;;;;;5000544;28;20225;-78
2023/01/14 00:22:04;;;;;;;7.13;1.80;;;6.00;99.90;;;;;;4993790;28;20739;-79
2023/01/14 00:24:31;;;;;;;8.03;2.20;;;5.90;99.90;;;;;;4999863;28;20218;-79
2023/01/14 00:26:58;;;;;;;10.87;2.17;;;5.90;99.90;;;;;;4996749;28;20248;-78
2023/01/14 00:29:27;;;;;;;7.40;2.00;;;5.90;99.90;;;;;;4987623;28;20223;-79
2023/01/14 00:31:56;;;;;;;5.67;1.90;;;5.90;99.90;;;;;;4983340;28;20225;-78
2023/01/14 00:34:25;;;;;;;10.33;2.40;;;5.90;99.90;;;;;;4985170;28;20230;-78
2023/01/14 00:36:52;;;;;;;9.87;2.17;;;5.90;99.90;;;;;;5001258;28;20235;-79
2023/01/14 00:39:21;;;;;;;7.50;1.93;;;5.90;99.90;;;;;;4985836;28;20238;-79
2023/01/14 00:41:48;;;;;;;7.37;1.67;;;6.00;99.90;;;;;;4987025;28;20263;-79
2023/01/14 00:44:15;;;;;;;10.57;2.40;;;6.00;99.90;;;;;;4999009;28;20315;-79
2023/01/14 00:46:42;;;;;;;9.37;1.97;;;6.00;99.90;;;;;;5001712;28;20232;-79
2023/01/14 00:49:16;;;;;;;10.07;2.00;;;6.00;99.90;;;;;;4998799;28;20298;-79
2023/01/14 00:51:42;;;;;;;7.07;1.60;;;6.00;99.90;;;;;;4992854;28;20252;-79
2023/01/14 00:54:11;;;;;;;10.33;2.13;;;6.00;99.90;;;;;;4983974;28;20223;-80
2023/01/14 00:56:39;;;;;;;8.63;1.80;;;6.10;99.90;;;;;;4986824;28;20276;-80
2023/01/14 00:59:06;;;;;;;8.87;1.90;;;6.00;99.90;;;;;;4983611;28;20330;-79
2023/01/14 01:01:33;;;;;;;6.17;1.60;;;6.00;99.90;;;;;;4988719;28;20717;-80
2023/01/14 01:04:00;;;;;;;6.23;1.80;;;5.90;99.90;;;;;;5002008;28;20848;-79
2023/01/14 01:06:28;;;;;;;7.43;1.87;;;5.90;99.90;;;;;;4998460;28;20853;-79
2023/01/14 01:09:00;;;;;;;6.87;1.80;;;5.80;99.90;;;;;;5001382;28;20310;-79
2023/01/14 01:11:27;;;;;;;8.33;2.00;;;5.80;99.90;;;;;;5007851;28;20233;-79
2023/01/14 01:13:54;;;;;;;7.67;2.03;;;5.70;99.90;;;;;;5002892;28;20227;-78
2023/01/14 01:16:24;;;;;;;6.20;1.53;;;5.70;99.90;;;;;;4985176;28;20526;-79
2023/01/14 01:18:51;;;;;;;9.60;2.00;;;5.70;99.90;;;;;;5001171;28;20393;-79
2023/01/14 01:21:20;;;;;;;8.93;1.83;;;5.60;99.90;;;;;;4986071;28;20295;-79
2023/01/14 01:23:49;;;;;;;6.80;1.63;;;5.60;99.90;;;;;;4996186;28;20326;-79
2023/01/14 01:26:17;;;;;;;7.90;1.63;;;5.60;99.90;;;;;;5000294;28;20292;-78
2023/01/14 01:28:47;;;;;;;5.67;1.47;;;5.50;99.90;;;;;;5000672;28;20290;-79
2023/01/14 01:31:14;;;;;;;8.57;2.00;;;5.50;99.90;;;;;;4998203;28;20228;-79
2023/01/14 01:33:41;;;;;;;7.73;1.83;;;5.50;99.90;;;;;;4979663;28;20227;-79
2023/01/14 01:36:13;;;;;;;8.30;1.70;;;5.50;99.90;;;;;;4981523;28;20258;-78
2023/01/14 01:38:41;;;;;;;6.27;2.40;;;5.50;99.90;;;;;;4986204;28;20247;-78
2023/01/14 01:41:13;;;;;;;10.03;2.00;;;5.50;99.90;;;;;;4989358;28;20223;-78
2023/01/14 01:44:03;;;;;;;5.97;1.40;;;5.50;99.90;;;;;;4983833;28;20900;-79
2023/01/14 01:46:31;;;;;;;5.27;1.30;;;5.50;99.90;;;;;;4980792;28;20307;-79
2023/01/14 01:49:03;;;;;;;9.10;1.80;;;5.50;99.90;;;;;;4994418;28;20326;-79
2023/01/14 01:51:34;;;;;;;9.40;1.70;;;5.50;99.90;;;;;;4987866;28;20323;-79
2023/01/14 01:54:02;;;;;;;6.47;2.30;;;5.50;99.90;;;;;;4993582;28;20226;-79
2023/01/14 01:56:34;;;;;;;6.23;1.67;;;5.60;99.90;;;;;;4997509;28;20773;-79
2023/01/14 01:59:03;;;;;;;5.50;1.70;;;5.60;99.90;;;;;;4982617;28;20220;-79
2023/01/14 02:01:32;;;;;;;7.20;1.60;;;5.60;99.90;;;;;;4989352;28;20225;-78
2023/01/14 02:04:00;;;;;;;5.60;1.50;;;5.60;99.90;;;;;;4985591;28;20223;-79
2023/01/14 02:06:27;;;;;;;5.37;1.90;;;5.70;99.90;;;;;;4987396;28;20232;-79
2023/01/14 02:08:56;;;;;;;5.47;1.67;;;5.70;99.90;;;;;;5002847;28;20224;-79
2023/01/14 02:11:43;;;;;;;7.77;1.90;;;5.70;99.90;;;;;;4989353;28;20222;-79
2023/01/14 02:14:24;;;;;;;9.90;2.10;;;5.70;99.90;;;;;;4979597;28;20229;-79
2023/01/14 02:16:58;;;;;;;4.10;1.80;;;5.80;99.90;;;;;;5004694;28;20244;-79
2023/01/14 02:19:42;;;;;;;7.37;1.60;;;5.80;99.90;;;;;;5007385;28;20225;-78
2023/01/14 02:22:24;;;;;;;9.03;2.17;;;5.90;99.90;;;;;;5005380;28;20278;-78
2023/01/14 02:25:13;;;;;;;6.07;1.57;;;5.90;99.90;;;;;;5004303;28;20305;-78
2023/01/14 02:28:03;;;;;;;8.37;2.23;;;5.90;99.90;;;;;;4985377;28;20229;-79
2023/01/14 02:30:41;;;;;;;8.03;2.00;;;5.90;99.90;;;;;;4994891;28;21310;-79
2023/01/14 02:33:23;;;;;;;7.00;1.33;;;5.90;99.90;;;;;;4981686;28;20218;-79
2023/01/14 02:35:54;;;;;;;8.43;1.93;;;5.90;99.90;;;;;;4998461;28;20240;-79
2023/01/14 02:38:32;;;;;;;9.57;2.50;;;6.00;99.90;;;;;;4987140;28;20244;-78
2023/01/14 02:41:08;;;;;;;7.00;1.53;;;6.00;99.90;;;;;;4984625;28;20777;-79
2023/01/14 02:46:31;;;;;;;4.97;1.67;;;6.00;99.90;;;;;;4976481;28;20227;-79
2023/01/14 02:49:06;;;;;;;6.20;1.47;;;6.00;99.90;;;;;;4998410;28;20240;-79
2023/01/14 02:51:33;;;;;;;6.17;1.80;;;6.00;99.90;;;;;;5006908;28;20247;-79
2023/01/14 02:54:00;;;;;;;9.27;2.10;;;6.00;99.90;;;;;;5005765;28;20718;-79
2023/01/14 02:56:28;;;;;;;6.10;1.60;;;6.00;99.90;;;;;;4996378;28;20231;-79
2023/01/14 02:59:31;;;;;;;5.73;1.50;;;6.00;99.90;;;;;;4992351;28;20218;-79
2023/01/14 03:02:27;;;;;;;8.23;1.63;;;6.00;99.90;;;;;;4977395;28;20224;-79
2023/01/14 03:05:28;;;;;;;4.67;1.37;;;6.00;99.90;;;;;;4988791;28;20222;-79
2023/01/14 03:08:00;;;;;;;7.77;1.77;;;6.00;99.90;;;;;;4987251;28;20295;-79
2023/01/14 03:10:31;;;;;;;11.17;1.87;;;6.00;99.90;;;;;;4988705;28;20607;-79
2023/01/14 03:13:14;;;;;;;4.63;1.40;;;6.00;99.90;;;;;;4986712;28;20237;-79
2023/01/14 03:15:48;;;;;;;7.87;1.73;;;6.00;99.90;;;;;;4982207;28;20251;-79
2023/01/14 03:18:24;;;;;;;4.80;1.60;;;6.00;99.90;;;;;;5007684;28;20225;-79
2023/01/14 03:20:58;;;;;;;4.70;1.43;;;6.00;99.90;;;;;;4983505;28;20308;-79
2023/01/14 03:23:28;;;;;;;5.17;1.13;;;6.00;99.90;;;;;;4999338;28;20259;-79
2023/01/14 03:25:58;;;;;;;4.77;1.40;;;6.00;99.90;;;;;;4988955;28;20230;-79
2023/01/14 03:28:32;;;;;;;5.90;1.33;;;5.90;99.90;;;;;;4999709;28;20227;-79
2023/01/14 03:31:07;;;;;;;5.43;1.53;;;6.00;99.90;;;;;;5000318;28;20221;-79
2023/01/14 03:33:48;;;;;;;6.00;1.43;;;6.00;99.90;;;;;;4981618;28;20308;-79
2023/01/14 03:36:15;;;;;;;10.53;1.93;;;5.90;99.90;;;;;;4997922;28;20312;-80
2023/01/14 03:38:47;;;;;;;7.30;1.67;;;6.00;99.90;;;;;;5001561;28;20297;-79
2023/01/14 03:42:18;;;;;;;4.17;1.23;;;6.00;99.90;;;;;;4994840;28;20233;-78
2023/01/14 03:44:09;;;;;;;5.40;1.20;;;6.00;99.90;;;;;;5000199;28;20287;-78
2023/01/14 03:46:39;;;;;;;3.07;1.20;;;5.90;99.90;;;;;;4999647;28;20221;-79
2023/01/14 03:49:07;;;;;;;4.67;1.17;;;6.00;99.90;;;;;;4982288;28;20738;-78
2023/01/14 03:51:39;;;;;;;4.60;1.23;;;5.90;99.90;;;;;;4983191;28;20645;-78
2023/01/14 03:54:14;;;;;;;8.00;1.60;;;6.00;99.90;;;;;;4998136;28;20267;-79
2023/01/14 03:56:47;;;;;;;8.23;1.93;;;6.00;99.90;;;;;;4997079;28;20232;-78
2023/01/14 03:59:18;;;;;;;5.03;1.40;;;6.00;99.90;;;;;;4997841;28;20228;-79
2023/01/14 04:01:51;;;;;;;5.77;1.70;;;6.00;99.90;;;;;;4986332;28;20554;-79
2023/01/14 04:04:24;;;;;;;9.97;2.33;;;6.00;99.90;;;;;;4984989;28;20234;-79
2023/01/14 04:06:51;;;;;;;6.10;1.33;;;6.00;99.90;;;;;;5001762;28;20315;-79
2023/01/14 04:09:18;;;;;;;8.43;1.80;;;6.00;99.90;;;;;;5003764;28;20265;-80
2023/01/14 04:11:45;;;;;;;5.33;1.03;;;6.00;99.90;;;;;;5005115;28;20263;-80
2023/01/14 04:16:56;;;;;;;4.73;1.40;;;6.00;99.90;;;;;;5005492;28;20221;-80
2023/01/14 04:19:24;;;;;;;5.07;1.30;;;6.00;99.90;;;;;;5007090;28;20224;-79
2023/01/14 04:21:51;;;;;;;4.60;1.37;;;6.00;99.90;;;;;;5007310;28;20223;-79
2023/01/14 04:24:20;;;;;;;4.00;0.90;;;6.00;99.90;;;;;;4993067;28;20226;-79
2023/01/14 04:26:47;;;;;;;5.60;1.47;;;6.00;99.90;;;;;;4985055;28;20340;-79
2023/01/14 04:29:14;;;;;;;3.63;1.20;;;6.10;99.90;;;;;;4987554;28;20330;-79
2023/01/14 04:31:43;;;;;;;3.37;1.10;;;6.00;99.90;;;;;;5000957;28;20244;-79
2023/01/14 04:34:11;;;;;;;5.87;1.20;;;6.00;99.90;;;;;;5005163;28;20248;-79
2023/01/14 04:36:40;;;;;;;4.53;0.90;;;6.00;99.90;;;;;;5000084;28;21007;-79
2023/01/14 04:39:06;;;;;;;3.70;1.20;;;6.00;99.90;;;;;;4999033;28;20224;-78
2023/01/14 04:44:17;;;;;;;5.63;1.30;;;6.00;99.90;;;;;;5004640;28;20225;-78
2023/01/14 04:46:46;;;;;;;4.43;1.13;;;6.00;99.90;;;;;;4997677;28;20228;-79
2023/01/14 04:49:13;;;;;;;4.10;1.00;;;6.00;99.90;;;;;;5020723;28;20245;-79
2023/01/14 04:51:41;;;;;;;5.90;1.33;;;6.00;99.90;;;;;;4999038;28;20247;-79
2023/01/14 04:54:08;;;;;;;6.00;1.47;;;5.90;99.90;;;;;;5009785;28;20258;-79
2023/01/14 04:56:35;;;;;;;5.03;1.37;;;5.90;99.90;;;;;;4988170;28;20225;-79
2023/01/14 04:59:03;;;;;;;3.43;1.10;;;5.90;99.90;;;;;;4993711;28;20229;-77
2023/01/14 05:01:30;;;;;;;8.00;1.60;;;5.90;99.90;;;;;;4977679;28;20237;-80
2023/01/14 05:03:58;;;;;;;6.00;1.50;;;5.80;99.90;;;;;;4994031;28;20215;-81
2023/01/14 05:06:25;;;;;;;6.77;2.13;;;5.80;99.90;;;;;;4995436;28;20232;-79
2023/01/14 05:08:53;;;;;;;5.03;1.40;;;5.80;99.90;;;;;;5007223;28;20289;-83
2023/01/14 05:11:20;;;;;;;5.80;1.50;;;5.80;99.90;;;;;;5006604;28;20305;-83
2023/01/14 05:13:47;;;;;;;5.17;2.27;;;5.80;99.90;;;;;;4997854;28;20284;-84
2023/01/14 05:16:17;;;;;;;5.70;2.70;;;5.70;99.90;;;;;;4985934;28;20229;-83
2023/01/14 05:18:44;;;;;;;7.00;3.17;;;5.70;99.90;;;;;;4991332;28;20237;-83
2023/01/14 05:21:11;;;;;;;8.37;3.20;;;5.60;99.90;;;;;;4994089;28;20217;-82
2023/01/14 05:23:38;;;;;;;8.17;3.40;;;5.70;99.90;;;;;;5003465;28;20726;-83
2023/01/14 05:26:07;;;;;;;11.13;4.23;;;5.70;99.90;;;;;;5007909;28;20248;-82
2023/01/14 05:28:34;;;;;;;7.40;4.13;;;5.70;99.90;;;;;;4992177;28;20902;-81
2023/01/14 05:31:03;;;;;;;13.27;5.17;;;5.80;99.90;;;;;;4989367;28;20220;-82
2023/01/14 05:33:31;;;;;;;8.27;4.07;;;5.70;99.90;;;;;;5007413;28;20320;-81
2023/01/14 05:35:59;;;;;;;9.50;4.70;;;5.70;99.90;;;;;;4991963;28;20278;-81
2023/01/14 05:38:27;;;;;;;14.73;5.17;;;5.70;99.90;;;;;;4999017;28;20233;-83
2023/01/14 05:40:54;;;;;;;12.77;5.30;;;5.70;99.90;;;;;;5001199;28;20314;-82
2023/01/14 05:46:09;;;;;;;13.33;6.10;;;5.70;99.90;;;;;;5001942;28;20779;-82
2023/01/14 05:48:36;;;;;;;12.37;5.63;;;5.70;99.90;;;;;;4988245;28;20224;-81
2023/01/14 05:51:05;;;;;;;17.97;6.17;;;5.70;99.90;;;;;;4983435;28;20281;-82
2023/01/14 05:53:32;;;;;;;16.00;6.00;;;5.70;99.90;;;;;;4986652;28;20250;-83
2023/01/14 05:56:00;;;;;;;12.73;5.53;;;5.70;99.90;;;;;;4992009;28;20248;-82
2023/01/14 05:58:28;;;;;;;17.27;5.93;;;5.70;99.90;;;;;;4997969;28;20608;-84
2023/01/14 06:06:26;;;;;;;13.83;6.00;;;5.80;99.90;;;;;;4980199;28;20244;-83
2023/01/14 06:08:56;;;;;;;16.77;5.70;;;5.80;99.90;;;;;;5002658;28;20232;-83
2023/01/14 06:11:24;;;;;;;21.43;5.80;;;5.80;99.90;;;;;;4984318;28;20239;-82
2023/01/14 06:13:56;;;;;;;18.20;5.90;;;5.80;99.90;;;;;;4990094;28;21096;-82
2023/01/14 06:16:23;;;;;;;16.93;5.60;;;5.80;99.90;;;;;;4990544;28;20227;-83
2023/01/14 06:18:50;;;;;;;13.17;5.57;;;5.80;99.90;;;;;;4989569;28;20240;-83
2023/01/14 06:21:21;;;;;;;12.27;5.33;;;5.80;99.90;;;;;;4986248;28;20903;-80
2023/01/14 06:23:48;;;;;;;19.03;5.90;;;5.80;99.90;;;;;;4994794;28;20228;-84
2023/01/14 06:26:18;;;;;;;16.80;5.40;;;5.80;99.90;;;;;;5000403;28;20231;-81
2023/01/14 06:28:46;;;;;;;12.40;5.33;;;5.90;99.90;;;;;;4987987;28;20332;-82
2023/01/14 06:31:17;;;;;;;18.37;5.87;;;5.90;99.90;;;;;;4968891;28;20950;-81
2023/01/14 06:33:45;;;;;;;15.30;5.77;;;5.90;99.90;;;;;;5006362;28;20216;-81
2023/01/14 06:36:13;;;;;;;14.10;5.50;;;5.90;99.90;;;;;;4993041;28;20232;-81
2023/01/14 06:38:41;;;;;;;14.90;4.83;;;5.90;99.90;;;;;;4991820;28;20297;-81
2023/01/14 06:41:09;;;;;;;16.23;4.60;;;5.90;99.90;;;;;;5002179;28;20585;-82
2023/01/14 06:43:37;;;;;;;16.83;4.53;;;5.90;99.90;;;;;;4997391;28;20236;-81
2023/01/14 06:46:04;;;;;;;15.37;4.70;;;5.90;99.90;;;;;;5000945;28;20835;-81
2023/01/14 06:48:32;;;;;;;12.90;4.37;;;6.00;99.90;;;;;;4993966;28;20225;-81
2023/01/14 06:51:04;;;;;;;13.37;3.63;;;6.00;99.90;;;;;;4989252;28;20227;-82
2023/01/14 06:53:31;;;;;;;13.50;3.87;;;5.90;99.90;;;;;;4982266;28;20256;-80
2023/01/14 06:56:01;;;;;;;11.37;4.03;;;6.00;99.90;;;;;;5000440;28;20236;-82
2023/01/14 06:58:28;;;;;;;9.73;3.27;;;6.00;99.90;;;;;;4999909;28;20225;-82
2023/01/14 07:00:56;;;;;;;10.77;3.63;;;5.90;99.90;;;;;;4990811;28;20316;-81
2023/01/14 07:03:23;;;;;;;11.03;3.20;;;5.90;99.90;;;;;;5004167;28;20256;-82
2023/01/14 07:05:54;;;;;;;12.60;2.87;;;5.90;99.90;;;;;;5007240;28;20242;-82
2023/01/14 07:08:21;;;;;;;12.00;2.93;;;5.90;99.90;;;;;;4982722;28;20213;-82
2023/01/14 07:10:50;;;;;;;14.00;3.90;;;5.90;99.90;;;;;;4999809;28;20222;-82
2023/01/14 07:13:17;;;;;;;10.87;3.03;;;5.90;99.90;;;;;;4982642;28;20236;-82
2023/01/14 07:15:44;;;;;;;13.20;3.10;;;5.90;99.90;;;;;;5000699;28;20267;-82
2023/01/14 07:18:12;;;;;;;11.07;2.97;;;5.90;99.90;;;;;;4980768;28;20226;-82
2023/01/14 07:20:41;;;;;;;9.77;3.00;;;5.90;99.90;;;;;;4998901;28;20235;-82
2023/01/14 07:23:09;;;;;;;12.40;3.20;;;5.90;99.90;;;;;;4984107;28;20882;-83
2023/01/14 07:25:36;;;;;;;9.20;3.27;;;5.90;99.90;;;;;;4986113;28;20890;-85
2023/01/14 07:28:04;;;;;;;12.33;3.37;;;5.90;99.90;;;;;;4992695;28;20308;-82
2023/01/14 07:30:31;;;;;;;11.67;3.33;;;5.80;99.90;;;;;;4985623;28;20229;-82
2023/01/14 07:32:59;;;;;;;11.63;3.50;;;5.80;99.90;;;;;;5005176;28;20229;-80
2023/01/14 07:35:26;;;;;;;13.80;3.33;;;5.80;99.90;;;;;;5002917;28;20763;-83
2023/01/14 07:37:54;;;;;;;13.87;3.90;;;5.80;99.90;;;;;;4995311;28;20254;-81
2023/01/14 07:40:22;;;;;;;12.27;4.20;;;5.70;99.90;;;;;;5003114;28;20280;-82
2023/01/14 07:42:55;;;;;;;13.00;3.67;;;5.70;99.90;;;;;;4987051;28;20263;-81
2023/01/14 07:45:22;;;;;;;15.57;3.53;;;5.70;99.90;;;;;;4992730;28;20221;-82
2023/01/14 07:47:49;;;;;;;16.87;4.97;;;5.60;99.90;;;;;;4982934;28;20221;-82
2023/01/14 07:50:16;;;;;;;11.80;4.10;;;5.60;99.90;;;;;;5004967;28;20266;-81
2023/01/14 07:52:43;;;;;;;10.60;3.67;;;5.50;99.90;;;;;;5004530;28;20258;-82
2023/01/14 07:55:10;;;;;;;10.70;3.53;;;5.50;99.90;;;;;;4992915;28;20267;-81
2023/01/14 07:57:38;;;;;;;13.67;5.27;;;5.40;99.90;;;;;;4994542;28;20906;-81
2023/01/14 08:00:06;;;;;;;18.93;4.53;;;5.40;99.90;;;;;;4999039;28;20228;-82
2023/01/14 08:02:38;;;;;;;16.97;4.67;;;5.30;99.90;;;;;;4991584;28;20231;-82
2023/01/14 08:05:05;;;;;;;17.73;4.23;;;5.30;99.90;;;;;;4985538;28;20364;-81
2023/01/14 08:07:37;;;;;;;16.80;4.40;;;5.30;99.90;;;;;;5008721;28;20286;-82
2023/01/14 08:10:11;;;;;;;16.57;4.90;;;5.20;99.90;;;;;;5009961;28;20226;-82
2023/01/14 08:12:39;;;;;;;15.33;3.67;;;5.20;99.90;;;;;;4988896;28;20226;-81
2023/01/14 08:15:11;;;;;;;16.17;4.20;;;5.20;99.90;;;;;;4992419;28;20224;-82
2023/01/14 08:17:37;;;;;;;15.27;4.10;;;5.20;99.90;;;;;;4992482;28;20235;-82
2023/01/14 08:20:05;;;;;;;14.13;3.73;;;5.20;99.90;;;;;;5010311;28;20227;-82
2023/01/14 08:22:32;;;;;;;14.83;3.90;;;5.20;99.90;;;;;;5000007;28;20226;-82
2023/01/14 08:24:58;;;;;;;18.63;4.57;;;5.20;99.90;;;;;;4992981;28;20661;-81
2023/01/14 08:27:26;;;;;;;11.97;3.67;;;5.20;99.90;;;;;;4983072;28;20233;-81
2023/01/14 08:29:55;;;;;;;15.53;4.27;;;5.20;99.90;;;;;;4989234;28;20334;-83
2023/01/14 08:32:22;;;;;;;10.57;4.00;;;5.20;99.90;;;;;;4990238;28;20278;-82
2023/01/14 08:34:50;;;;;;;14.00;4.07;;;5.20;99.90;;;;;;4999280;28;20232;-82
2023/01/14 08:37:19;;;;;;;13.60;4.37;;;5.20;99.90;;;;;;4981330;28;20225;-82
2023/01/14 08:39:46;;;;;;;15.67;4.30;;;5.20;99.90;;;;;;4988649;28;20236;-81
2023/01/14 08:42:15;;;;;;;15.53;4.37;;;5.20;99.90;;;;;;5003349;28;20216;-82
2023/01/14 08:44:42;;;;;;;16.83;4.70;;;5.30;99.90;;;;;;4985581;28;20270;-82
2023/01/14 08:47:10;;;;;;;14.57;4.00;;;5.30;99.90;;;;;;5008739;28;20235;-82
2023/01/14 08:49:39;;;;;;;16.63;4.40;;;5.30;99.90;;;;;;5002887;28;20244;-82
2023/01/14 08:52:06;;;;;;;15.83;3.77;;;5.30;99.90;;;;;;5005803;28;20292;-82
2023/01/14 08:54:33;;;;;;;13.70;4.53;;;5.30;99.90;;;;;;4998642;28;20573;-81
2023/01/14 08:57:03;;;;;;;15.40;4.83;;;5.20;99.90;;;;;;4987404;28;20773;-82
2023/01/14 08:59:29;;;;;;;15.77;4.93;;;5.20;99.90;;;;;;4996077;28;20236;-82
2023/01/14 09:01:56;;;;;;;17.67;4.63;;;5.20;99.90;;;;;;4984961;28;20232;-82
2023/01/14 09:04:29;;;;;;;18.87;4.63;;;5.20;99.90;;;;;;4986585;28;20228;-81
2023/01/14 09:17:56;;;;;;;16.47;4.63;;;5.20;99.90;;;;;;4989133;28;20221;-82
2023/01/14 09:20:31;;;;;;;17.30;5.17;;;5.20;99.90;;;;;;5000357;28;20242;-82
2023/01/14 09:22:58;;;;;;;16.13;4.67;;;5.20;99.90;;;;;;4993752;28;20216;-82
2023/01/14 09:25:26;;;;;;;16.40;4.43;;;5.20;99.90;;;;;;5004915;28;20356;-82
2023/01/14 09:27:53;;;;;;;16.40;4.77;;;5.20;99.90;;;;;;4984919;28;20871;-82
2023/01/14 09:30:20;;;;;;;13.10;4.43;;;5.20;99.90;;;;;;4990839;28;20228;-82
2023/01/14 09:32:48;;;;;;;14.93;4.83;;;5.20;99.90;;;;;;5004127;28;20237;-82
2023/01/14 09:35:19;;;;;;;15.03;4.67;;;5.20;99.90;;;;;;5000071;28;20597;-82
2023/01/14 09:37:47;;;;;;;21.77;5.13;;;5.20;99.90;;;;;;4996371;28;20228;-82
2023/01/14 09:40:14;;;;;;;17.53;5.43;;;5.20;99.90;;;;;;4997115;28;20224;-82
2023/01/14 09:42:43;;;;;;;20.33;5.80;;;5.30;99.90;;;;;;5000688;28;20225;-82
2023/01/14 09:45:15;;;;;;;19.77;5.40;;;5.30;99.90;;;;;;5004777;28;20415;-82
2023/01/14 09:47:43;;;;;;;18.87;6.00;;;5.20;99.90;;;;;;4989346;28;20231;-82
2023/01/14 09:50:15;;;;;;;22.20;5.83;;;5.20;99.90;;;;;;5000380;28;20228;-82
2023/01/14 09:52:56;;;;;;;18.60;5.20;;;5.20;99.90;;;;;;4987039;28;20245;-82
2023/01/14 09:55:30;;;;;;;20.60;5.47;;;5.20;99.90;;;;;;4994872;28;20228;-82
2023/01/14 09:58:04;;;;;;;14.33;5.20;;;5.20;99.90;;;;;;5004572;28;20322;-82
2023/01/14 10:00:47;;;;;;;23.53;6.07;;;5.30;99.90;;;;;;4984729;28;20237;-82
2023/01/14 10:03:25;;;;;;;19.97;6.93;;;5.30;99.90;;;;;;4983105;28;20237;-82
2023/01/14 10:05:56;;;;;;;15.73;6.30;;;5.40;99.90;;;;;;5003622;28;20343;-82
2023/01/14 10:08:33;;;;;;;20.20;5.93;;;5.40;99.90;;;;;;4982751;28;20250;-82
2023/01/14 10:11:00;;;;;;;19.37;5.90;;;5.40;99.90;;;;;;4985336;28;20482;-82
2023/01/14 10:13:33;;;;;;;16.40;5.93;;;5.50;99.90;;;;;;4979496;28;20231;-82
2023/01/14 10:16:03;;;;;;;21.20;6.27;;;5.50;99.90;;;;;;5003277;28;20255;-82
2023/01/14 10:18:34;;;;;;;21.13;6.00;;;5.50;99.90;;;;;;4985360;28;20299;-82
2023/01/14 10:21:02;;;;;;;23.73;6.87;;;5.60;99.90;;;;;;4986096;28;20598;-82
2023/01/14 10:23:36;;;;;;;19.80;5.93;;;5.60;99.90;;;;;;4995545;28;20773;-82
2023/01/14 10:26:14;;;;;;;21.07;6.40;;;5.60;99.90;;;;;;4994590;28;20674;-82
2023/01/14 10:28:42;;;;;;;19.07;6.03;;;5.60;99.90;;;;;;4987492;28;20225;-83
2023/01/14 10:31:17;;;;;;;18.63;6.07;;;5.70;99.90;;;;;;4987006;28;20228;-82
2023/01/14 10:33:46;;;;;;;14.73;5.87;;;5.70;99.90;;;;;;4978723;28;20304;-83
2023/01/14 10:36:15;;;;;;;21.97;6.03;;;5.70;99.90;;;;;;5002269;28;20838;-82
2023/01/14 10:38:43;;;;;;;18.63;5.73;;;5.70;99.90;;;;;;4977925;28;20228;-82
2023/01/14 10:41:15;;;;;;;18.03;5.40;;;5.70;99.90;;;;;;4995531;28;20634;-82
2023/01/14 10:43:45;;;;;;;18.00;5.70;;;5.70;99.90;;;;;;4980836;28;20225;-82
2023/01/14 10:46:16;;;;;;;20.07;6.00;;;5.70;99.90;;;;;;4995364;28;20232;-82
2023/01/14 10:48:52;;;;;;;24.13;4.90;;;5.80;99.90;;;;;;4982248;28;20694;-82
2023/01/14 10:51:35;;;;;;;22.60;5.57;;;5.80;99.90;;;;;;4996484;28;20877;-82
2023/01/14 10:54:16;;;;;;;20.13;5.50;;;5.80;99.90;;;;;;4988581;28;20585;-82
2023/01/14 10:56:46;;;;;;;17.57;5.50;;;5.80;99.90;;;;;;4995724;28;20228;-82
2023/01/14 10:59:34;;;;;;;18.43;5.17;;;5.80;99.90;;;;;;4986892;28;20302;-83
2023/01/14 11:02:04;;;;;;;18.63;4.93;;;5.80;99.90;;;;;;4980634;28;20277;-82
2023/01/14 11:04:33;;;;;;;15.47;5.13;;;5.90;99.90;;;;;;4991284;28;20319;-82
2023/01/14 11:07:08;;;;;;;25.60;5.57;;;5.80;99.90;;;;;;4985853;28;20312;-82
2023/01/14 11:09:37;;;;;;;14.50;4.30;;;5.80;99.90;;;;;;4982359;28;20330;-81
2023/01/14 11:12:05;;;;;;;24.67;5.07;;;5.80;99.90;;;;;;4982190;28;20226;-81
2023/01/14 11:14:37;;;;;;;17.70;4.83;;;5.80;99.90;;;;;;4990640;28;20224;-81
2023/01/14 11:17:23;;;;;;;21.53;5.30;;;5.80;99.90;;;;;;4996655;28;20220;-81
2023/01/14 11:19:50;;;;;;;21.03;4.33;;;5.80;99.90;;;;;;4997614;28;20235;-81
2023/01/14 11:22:20;;;;;;;13.03;3.97;;;5.80;99.90;;;;;;4995910;28;20738;-80
2023/01/14 11:24:56;;;;;;;16.80;4.27;;;5.80;99.90;;;;;;4984963;28;20230;-81
2023/01/14 11:27:30;;;;;;;16.87;4.77;;;5.80;99.90;;;;;;4972566;28;20281;-81
2023/01/14 11:30:02;;;;;;;16.43;3.87;;;5.80;99.90;;;;;;4995323;28;20740;-81
2023/01/14 11:32:34;;;;;;;14.63;3.87;;;5.90;99.90;;;;;;4999363;28;20593;-81
2023/01/14 11:35:02;;;;;;;16.60;4.37;;;5.80;99.90;;;;;;4986609;28;20222;-81
2023/01/14 11:37:36;;;;;;;17.83;4.20;;;5.80;99.90;;;;;;4998784;28;20220;-81
2023/01/14 11:40:06;;;;;;;10.13;3.30;;;5.80;99.90;;;;;;4984641;28;20329;-81
2023/01/14 11:42:36;;;;;;;15.93;4.17;;;5.80;99.90;;;;;;4998011;28;20236;-81
2023/01/14 11:45:16;;;;;;;15.83;3.50;;;5.90;99.90;;;;;;4986978;28;20229;-81
2023/01/14 11:47:46;;;;;;;11.73;3.70;;;5.80;99.90;;;;;;5002377;28;20762;-81
2023/01/14 11:50:20;;;;;;;19.47;3.87;;;5.80;99.90;;;;;;4999527;28;20225;-81
2023/01/14 11:53:05;;;;;;;17.67;4.20;;;5.90;99.90;;;;;;5007719;28;20236;-81
2023/01/14 11:55:36;;;;;;;15.67;3.87;;;5.90;99.90;;;;;;4978205;28;20322;-83
2023/01/14 11:58:14;;;;;;;13.30;3.70;;;5.80;99.90;;;;;;5003131;28;20271;-81
2023/01/14 12:00:43;;;;;;;14.33;4.60;;;5.80;99.90;;;;;;4997216;28;20234;-80
2023/01/14 12:03:20;;;;;;;20.17;3.70;;;5.80;99.90;;;;;;4990947;28;20775;-80
2023/01/14 12:05:47;;;;;;;12.63;3.83;;;5.70;99.90;;;;;;5002284;28;20228;-81
2023/01/14 12:08:17;;;;;;;13.73;2.93;;;5.60;99.90;;;;;;5000013;28;20218;-80
2023/01/14 12:10:48;;;;;;;15.43;3.40;;;5.60;99.90;;;;;;4989338;28;20232;-81
2023/01/14 12:18:59;;;;;;;10.73;3.47;;;5.40;99.90;;;;;;4998335;28;20755;-80
2023/01/14 12:21:36;;;;;;;14.90;2.97;;;5.40;99.90;;;;;;4995681;28;20801;-81
2023/01/14 12:24:11;;;;;;;14.17;3.37;;;5.30;99.90;;;;;;5004105;28;20226;-81
2023/01/14 12:26:44;;;;;;;15.47;3.93;;;5.30;99.90;;;;;;4983122;28;20216;-81
2023/01/14 12:29:15;;;;;;;12.03;3.30;;;5.30;99.90;;;;;;5001363;28;20295;-80
2023/01/14 12:31:45;;;;;;;11.70;2.80;;;5.20;99.90;;;;;;4987430;28;20715;-81
2023/01/14 12:34:19;;;;;;;14.20;3.20;;;5.20;99.90;;;;;;4989032;28;20228;-81
2023/01/14 12:36:51;;;;;;;13.00;3.70;;;5.20;99.90;;;;;;5005739;28;20231;-81
2023/01/14 12:45:44;;;;;;;12.30;2.67;;;5.00;99.90;;;;;;4986994;28;20307;-80
2023/01/14 12:48:12;;;;;;;13.87;3.30;;;5.00;99.90;;;;;;4989305;28;20263;-81
2023/01/14 12:50:47;;;;;;;10.37;2.80;;;4.90;99.90;;;;;;5006230;28;20259;-81
2023/01/14 12:53:19;;;;;;;12.00;2.87;;;4.90;99.90;;;;;;4985396;28;20230;-81
2023/01/14 12:55:48;;;;;;;10.13;3.07;;;4.90;99.90;;;;;;5001190;28;20845;-81
2023/01/14 12:58:20;;;;;;;16.67;6.40;;;4.80;99.90;;;;;;5002412;28;20234;-80
2023/01/14 13:00:51;;;;;;;9.20;3.13;;;4.70;99.90;;;;;;5002946;28;20223;-80
2023/01/14 13:03:22;;;;;;;14.30;4.00;;;4.70;99.90;;;;;;5001177;28;20259;-82
2023/01/14 13:05:48;;;;;;;12.07;3.23;;;4.70;99.90;;;;;;5000289;28;20230;-81
2023/01/14 13:08:21;;;;;;;10.00;2.93;;;4.70;99.90;;;;;;4989230;28;20242;-80
2023/01/14 13:11:00;;;;;;;13.03;3.40;;;4.60;99.90;;;;;;5002395;28;20319;-80
2023/01/14 13:13:29;;;;;;;12.53;3.43;;;4.60;99.90;;;;;;5000572;28;20264;-81
2023/01/14 13:15:58;;;;;;;12.27;2.93;;;4.60;99.90;;;;;;5001199;28;20233;-81
2023/01/14 13:18:56;;;;;;;14.63;3.10;;;4.60;99.90;;;;;;5006827;28;20227;-81
2023/01/14 13:21:56;;;;;;;11.87;3.00;;;4.60;99.90;;;;;;4988403;28;20314;-81
2023/01/14 13:24:32;;;;;;;11.83;3.47;;;4.60;99.90;;;;;;5008670;28;20310;-81
2023/01/14 13:27:01;;;;;;;13.23;3.13;;;4.60;99.90;;;;;;4997434;28;20317;-81
2023/01/14 13:29:33;;;;;;;7.37;2.70;;;4.60;99.90;;;;;;4983048;28;20239;-81
2023/01/14 13:32:04;;;;;;;11.27;2.63;;;4.60;99.90;;;;;;5000361;28;20235;-80
2023/01/14 13:34:40;;;;;;;11.73;3.20;;;4.50;99.90;;;;;;4996676;28;20270;-80
2023/01/14 13:37:22;;;;;;;10.90;3.00;;;4.50;99.90;;;;;;4986595;28;20232;-80
2023/01/14 13:39:55;;;;;;;15.80;2.97;;;4.50;99.90;;;;;;4974378;28;20318;-81
2023/01/14 13:42:31;;;;;;;9.77;2.20;;;4.60;99.90;;;;;;4998073;28;20357;-81
2023/01/14 13:45:01;;;;;;;11.33;2.40;;;4.60;99.90;;;;;;5003545;28;20285;-81
2023/01/14 13:47:34;;;;;;;12.63;2.60;;;4.60;99.90;;;;;;4989536;28;20552;-80
2023/01/14 13:50:08;;;;;;;8.73;2.53;;;4.60;99.90;;;;;;5000395;28;20216;-81